sensor_id;sensor_type;location;lat;lon;timestamp;P1;durP1;ratioP1;P2;durP2;ratioP2
4744;SDS011;2386;42.138;24.746;2023-02-11T00:00:19;165.83;;;56.00;;
4744;SDS011;2386;42.138;24.746;2023-02-11T00:02:45;138.00;;;46.23;;
4744;SDS011;2386;42.138;24.746;2023-02-11T00:05:11;155.97;;;50.30;;
4744;SDS011;2386;42.138;24.746;2023-02-11T00:07:36;145.43;;;50.20;;
4744;SDS011;2386;42.138;24.746;2023-02-11T00:10:02;146.97;;;49.70;;
4744;SDS011;2386;42.138;24.746;2023-02-11T00:12:30;141.00;;;49.03;;
4744;SDS011;2386;42.138;24.746;2023-02-11T00:14:55;143.03;;;52.90;;
4744;SDS011;2386;42.138;24.746;2023-02-11T00:17:21;141.03;;;49.57;;
4744;SDS011;2386;42.138;24.746;2023-02-11T00:19:55;141.23;;;51.63;;
4744;SDS011;2386;42.138;24.746;2023-02-11T00:22:20;145.13;;;51.87;;
4744;SDS011;2386;42.138;24.746;2023-02-11T00:24:46;153.63;;;53.33;;
4744;SDS011;2386;42.138;24.746;2023-02-11T00:27:11;146.50;;;51.83;;
4744;SDS011;2386;42.138;24.746;2023-02-11T00:29:37;143.60;;;50.40;;
4744;SDS011;2386;42.138;24.746;2023-02-11T00:32:03;151.53;;;51.90;;
4744;SDS011;2386;42.138;24.746;2023-02-11T00:34:32;142.50;;;51.17;;
4744;SDS011;2386;42.138;24.746;2023-02-11T00:36:58;149.90;;;51.97;;
4744;SDS011;2386;42.138;24.746;2023-02-11T00:39:24;149.43;;;51.10;;
4744;SDS011;2386;42.138;24.746;2023-02-11T00:41:50;151.90;;;53.10;;
4744;SDS011;2386;42.138;24.746;2023-02-11T00:44:15;152.43;;;52.33;;
4744;SDS011;2386;42.138;24.746;2023-02-11T00:46:41;152.07;;;52.73;;
4744;SDS011;2386;42.138;24.746;2023-02-11T00:49:06;150.93;;;52.60;;
4744;SDS011;2386;42.138;24.746;2023-02-11T00:51:32;173.97;;;49.53;;
4744;SDS011;2386;42.138;24.746;2023-02-11T00:53:57;147.87;;;50.80;;
4744;SDS011;2386;42.138;24.746;2023-02-11T00:56:22;161.73;;;55.23;;
4744;SDS011;2386;42.138;24.746;2023-02-11T00:58:48;148.50;;;50.20;;
4744;SDS011;2386;42.138;24.746;2023-02-11T01:01:13;167.03;;;51.80;;
4744;SDS011;2386;42.138;24.746;2023-02-11T01:03:39;163.93;;;50.50;;
4744;SDS011;2386;42.138;24.746;2023-02-11T01:06:06;141.63;;;47.57;;
4744;SDS011;2386;42.138;24.746;2023-02-11T01:08:32;116.53;;;42.10;;
4744;SDS011;2386;42.138;24.746;2023-02-11T01:10:59;125.87;;;46.10;;
4744;SDS011;2386;42.138;24.746;2023-02-11T01:13:26;112.90;;;44.03;;
4744;SDS011;2386;42.138;24.746;2023-02-11T01:15:53;117.50;;;44.27;;
4744;SDS011;2386;42.138;24.746;2023-02-11T01:18:19;120.43;;;44.77;;
4744;SDS011;2386;42.138;24.746;2023-02-11T01:20:44;120.10;;;44.47;;
4744;SDS011;2386;42.138;24.746;2023-02-11T01:23:10;117.30;;;45.57;;
4744;SDS011;2386;42.138;24.746;2023-02-11T01:25:35;125.13;;;47.03;;
4744;SDS011;2386;42.138;24.746;2023-02-11T01:28:01;121.80;;;46.20;;
4744;SDS011;2386;42.138;24.746;2023-02-11T01:30:26;124.23;;;46.07;;
4744;SDS011;2386;42.138;24.746;2023-02-11T01:32:51;121.20;;;46.27;;
4744;SDS011;2386;42.138;24.746;2023-02-11T01:35:17;123.30;;;48.13;;
4744;SDS011;2386;42.138;24.746;2023-02-11T01:37:42;126.93;;;46.40;;
4744;SDS011;2386;42.138;24.746;2023-02-11T01:40:11;130.20;;;48.37;;
4744;SDS011;2386;42.138;24.746;2023-02-11T01:42:38;139.80;;;50.43;;
4744;SDS011;2386;42.138;24.746;2023-02-11T01:48:06;133.40;;;47.77;;
4744;SDS011;2386;42.138;24.746;2023-02-11T01:50:36;131.57;;;45.13;;
4744;SDS011;2386;42.138;24.746;2023-02-11T01:53:04;139.83;;;49.53;;
4744;SDS011;2386;42.138;24.746;2023-02-11T01:55:48;134.80;;;46.90;;
4744;SDS011;2386;42.138;24.746;2023-02-11T01:58:35;144.00;;;50.17;;
4744;SDS011;2386;42.138;24.746;2023-02-11T02:01:03;127.27;;;45.07;;
4744;SDS011;2386;42.138;24.746;2023-02-11T02:03:30;133.27;;;47.83;;
4744;SDS011;2386;42.138;24.746;2023-02-11T02:05:59;134.13;;;48.80;;
4744;SDS011;2386;42.138;24.746;2023-02-11T02:11:07;136.40;;;47.87;;
4744;SDS011;2386;42.138;24.746;2023-02-11T02:13:33;135.77;;;48.87;;
4744;SDS011;2386;42.138;24.746;2023-02-11T02:16:00;142.27;;;49.00;;
4744;SDS011;2386;42.138;24.746;2023-02-11T02:36:41;146.43;;;49.67;;
4744;SDS011;2386;42.138;24.746;2023-02-11T02:39:04;152.97;;;51.00;;
4744;SDS011;2386;42.138;24.746;2023-02-11T02:41:34;151.33;;;51.07;;
4744;SDS011;2386;42.138;24.746;2023-02-11T02:44:01;144.53;;;47.93;;
4744;SDS011;2386;42.138;24.746;2023-02-11T02:46:31;153.90;;;50.70;;
4744;SDS011;2386;42.138;24.746;2023-02-11T02:48:58;158.50;;;50.43;;
4744;SDS011;2386;42.138;24.746;2023-02-11T03:02:30;164.07;;;52.70;;
4744;SDS011;2386;42.138;24.746;2023-02-11T03:05:17;144.27;;;49.53;;
4744;SDS011;2386;42.138;24.746;2023-02-11T03:08:11;143.33;;;50.20;;
4744;SDS011;2386;42.138;24.746;2023-02-11T03:11:01;137.07;;;49.00;;
4744;SDS011;2386;42.138;24.746;2023-02-11T03:13:30;149.77;;;51.63;;
4744;SDS011;2386;42.138;24.746;2023-02-11T03:15:59;150.63;;;51.10;;
4744;SDS011;2386;42.138;24.746;2023-02-11T03:18:32;154.93;;;52.67;;
4744;SDS011;2386;42.138;24.746;2023-02-11T03:21:01;155.20;;;50.37;;
4744;SDS011;2386;42.138;24.746;2023-02-11T03:23:32;157.70;;;53.30;;
4744;SDS011;2386;42.138;24.746;2023-02-11T03:28:54;165.07;;;53.37;;
4744;SDS011;2386;42.138;24.746;2023-02-11T03:31:36;162.60;;;55.93;;
4744;SDS011;2386;42.138;24.746;2023-02-11T03:34:16;172.00;;;56.70;;
4744;SDS011;2386;42.138;24.746;2023-02-11T03:39:35;171.60;;;53.13;;
4744;SDS011;2386;42.138;24.746;2023-02-11T03:42:05;179.47;;;57.37;;
4744;SDS011;2386;42.138;24.746;2023-02-11T03:44:42;207.73;;;60.23;;
4744;SDS011;2386;42.138;24.746;2023-02-11T03:47:17;159.63;;;54.90;;
4744;SDS011;2386;42.138;24.746;2023-02-11T03:49:46;162.83;;;56.50;;
4744;SDS011;2386;42.138;24.746;2023-02-11T03:52:16;168.03;;;53.80;;
4744;SDS011;2386;42.138;24.746;2023-02-11T03:54:44;175.27;;;53.70;;
4744;SDS011;2386;42.138;24.746;2023-02-11T03:57:13;168.40;;;55.23;;
4744;SDS011;2386;42.138;24.746;2023-02-11T03:59:57;166.27;;;53.70;;
4744;SDS011;2386;42.138;24.746;2023-02-11T04:02:25;180.20;;;57.30;;
4744;SDS011;2386;42.138;24.746;2023-02-11T04:04:55;186.00;;;54.47;;
4744;SDS011;2386;42.138;24.746;2023-02-11T04:07:20;185.23;;;56.73;;
4744;SDS011;2386;42.138;24.746;2023-02-11T04:09:46;171.53;;;53.57;;
4744;SDS011;2386;42.138;24.746;2023-02-11T04:12:11;184.00;;;56.43;;
4744;SDS011;2386;42.138;24.746;2023-02-11T04:14:37;186.27;;;56.77;;
4744;SDS011;2386;42.138;24.746;2023-02-11T04:17:02;186.80;;;58.03;;
4744;SDS011;2386;42.138;24.746;2023-02-11T04:19:28;172.63;;;53.37;;
4744;SDS011;2386;42.138;24.746;2023-02-11T04:21:53;179.27;;;56.90;;
4744;SDS011;2386;42.138;24.746;2023-02-11T04:24:19;181.63;;;56.07;;
4744;SDS011;2386;42.138;24.746;2023-02-11T04:26:44;211.00;;;61.00;;
4744;SDS011;2386;42.138;24.746;2023-02-11T04:29:09;184.43;;;55.13;;
4744;SDS011;2386;42.138;24.746;2023-02-11T04:31:35;161.40;;;54.67;;
4744;SDS011;2386;42.138;24.746;2023-02-11T04:34:00;160.37;;;53.70;;
4744;SDS011;2386;42.138;24.746;2023-02-11T04:36:25;161.13;;;52.80;;
4744;SDS011;2386;42.138;24.746;2023-02-11T04:38:51;157.77;;;51.27;;
4744;SDS011;2386;42.138;24.746;2023-02-11T04:41:16;176.47;;;54.50;;
4744;SDS011;2386;42.138;24.746;2023-02-11T04:43:41;192.83;;;59.13;;
4744;SDS011;2386;42.138;24.746;2023-02-11T04:46:07;220.27;;;61.83;;
4744;SDS011;2386;42.138;24.746;2023-02-11T04:48:32;210.10;;;61.60;;
4744;SDS011;2386;42.138;24.746;2023-02-11T04:50:59;268.63;;;62.50;;
4744;SDS011;2386;42.138;24.746;2023-02-11T04:53:25;236.80;;;64.63;;
4744;SDS011;2386;42.138;24.746;2023-02-11T04:55:50;242.00;;;64.27;;
4744;SDS011;2386;42.138;24.746;2023-02-11T04:58:16;219.30;;;61.70;;
4744;SDS011;2386;42.138;24.746;2023-02-11T05:00:42;192.83;;;56.80;;
4744;SDS011;2386;42.138;24.746;2023-02-11T05:03:07;197.07;;;58.70;;
4744;SDS011;2386;42.138;24.746;2023-02-11T05:05:33;196.50;;;56.60;;
4744;SDS011;2386;42.138;24.746;2023-02-11T05:07:58;189.07;;;59.63;;
4744;SDS011;2386;42.138;24.746;2023-02-11T05:10:23;171.50;;;53.77;;
4744;SDS011;2386;42.138;24.746;2023-02-11T05:12:49;158.83;;;52.73;;
4744;SDS011;2386;42.138;24.746;2023-02-11T05:15:14;163.27;;;53.60;;
4744;SDS011;2386;42.138;24.746;2023-02-11T05:17:40;162.43;;;56.27;;
4744;SDS011;2386;42.138;24.746;2023-02-11T05:20:05;163.40;;;53.20;;
4744;SDS011;2386;42.138;24.746;2023-02-11T05:22:31;152.63;;;50.67;;
4744;SDS011;2386;42.138;24.746;2023-02-11T05:24:56;148.53;;;50.60;;
4744;SDS011;2386;42.138;24.746;2023-02-11T05:27:22;159.50;;;52.53;;
4744;SDS011;2386;42.138;24.746;2023-02-11T05:29:47;149.87;;;47.73;;
4744;SDS011;2386;42.138;24.746;2023-02-11T05:32:13;150.77;;;51.30;;
4744;SDS011;2386;42.138;24.746;2023-02-11T05:34:38;159.53;;;54.83;;
4744;SDS011;2386;42.138;24.746;2023-02-11T05:37:03;155.67;;;52.00;;
4744;SDS011;2386;42.138;24.746;2023-02-11T05:39:29;144.13;;;49.53;;
4744;SDS011;2386;42.138;24.746;2023-02-11T05:41:55;157.83;;;53.47;;
4744;SDS011;2386;42.138;24.746;2023-02-11T05:44:20;155.87;;;53.13;;
4744;SDS011;2386;42.138;24.746;2023-02-11T05:46:45;156.20;;;50.90;;
4744;SDS011;2386;42.138;24.746;2023-02-11T05:49:11;144.20;;;49.40;;
4744;SDS011;2386;42.138;24.746;2023-02-11T05:51:36;150.33;;;49.60;;
4744;SDS011;2386;42.138;24.746;2023-02-11T05:54:02;156.13;;;52.67;;
4744;SDS011;2386;42.138;24.746;2023-02-11T05:56:27;164.37;;;54.27;;
4744;SDS011;2386;42.138;24.746;2023-02-11T05:58:53;150.27;;;50.73;;
4744;SDS011;2386;42.138;24.746;2023-02-11T06:01:18;172.60;;;56.70;;
4744;SDS011;2386;42.138;24.746;2023-02-11T06:03:43;164.13;;;51.93;;
4744;SDS011;2386;42.138;24.746;2023-02-11T06:06:10;157.37;;;53.30;;
4744;SDS011;2386;42.138;24.746;2023-02-11T06:08:36;166.03;;;53.53;;
4744;SDS011;2386;42.138;24.746;2023-02-11T06:11:01;166.43;;;55.50;;
4744;SDS011;2386;42.138;24.746;2023-02-11T06:13:27;158.17;;;49.17;;
4744;SDS011;2386;42.138;24.746;2023-02-11T06:15:56;152.17;;;49.63;;
4744;SDS011;2386;42.138;24.746;2023-02-11T06:18:25;161.13;;;54.47;;
4744;SDS011;2386;42.138;24.746;2023-02-11T06:20:51;155.33;;;51.43;;
4744;SDS011;2386;42.138;24.746;2023-02-11T06:23:17;182.37;;;57.83;;
4744;SDS011;2386;42.138;24.746;2023-02-11T06:25:42;161.53;;;52.87;;
4744;SDS011;2386;42.138;24.746;2023-02-11T06:28:07;161.23;;;54.63;;
4744;SDS011;2386;42.138;24.746;2023-02-11T06:30:35;154.17;;;52.93;;
4744;SDS011;2386;42.138;24.746;2023-02-11T06:33:03;147.00;;;49.23;;
4744;SDS011;2386;42.138;24.746;2023-02-11T06:35:29;174.47;;;56.77;;
4744;SDS011;2386;42.138;24.746;2023-02-11T06:37:54;176.90;;;55.63;;
4744;SDS011;2386;42.138;24.746;2023-02-11T06:40:20;162.50;;;53.80;;
4744;SDS011;2386;42.138;24.746;2023-02-11T06:42:46;157.03;;;53.03;;
4744;SDS011;2386;42.138;24.746;2023-02-11T06:45:11;172.83;;;56.17;;
4744;SDS011;2386;42.138;24.746;2023-02-11T06:47:37;152.23;;;48.90;;
4744;SDS011;2386;42.138;24.746;2023-02-11T06:50:04;152.63;;;48.13;;
4744;SDS011;2386;42.138;24.746;2023-02-11T06:52:31;171.97;;;55.33;;
4744;SDS011;2386;42.138;24.746;2023-02-11T06:54:57;169.13;;;54.57;;
4744;SDS011;2386;42.138;24.746;2023-02-11T06:57:23;158.63;;;48.87;;
4744;SDS011;2386;42.138;24.746;2023-02-11T06:59:48;166.20;;;52.70;;
4744;SDS011;2386;42.138;24.746;2023-02-11T07:02:14;173.60;;;56.57;;
4744;SDS011;2386;42.138;24.746;2023-02-11T07:04:39;159.33;;;50.10;;
4744;SDS011;2386;42.138;24.746;2023-02-11T07:07:05;171.23;;;54.60;;
4744;SDS011;2386;42.138;24.746;2023-02-11T07:09:31;177.87;;;55.97;;
4744;SDS011;2386;42.138;24.746;2023-02-11T07:11:56;162.90;;;51.90;;
4744;SDS011;2386;42.138;24.746;2023-02-11T07:14:21;164.33;;;52.20;;
4744;SDS011;2386;42.138;24.746;2023-02-11T07:16:47;168.00;;;54.20;;
4744;SDS011;2386;42.138;24.746;2023-02-11T07:19:12;167.80;;;51.83;;
4744;SDS011;2386;42.138;24.746;2023-02-11T07:21:38;181.20;;;51.20;;
4744;SDS011;2386;42.138;24.746;2023-02-11T07:24:07;178.37;;;53.70;;
4744;SDS011;2386;42.138;24.746;2023-02-11T07:26:33;172.90;;;51.23;;
4744;SDS011;2386;42.138;24.746;2023-02-11T07:29:00;171.37;;;51.17;;
4744;SDS011;2386;42.138;24.746;2023-02-11T07:31:26;168.30;;;50.53;;
4744;SDS011;2386;42.138;24.746;2023-02-11T07:33:53;172.57;;;53.57;;
4744;SDS011;2386;42.138;24.746;2023-02-11T07:36:20;184.77;;;56.47;;
4744;SDS011;2386;42.138;24.746;2023-02-11T07:38:46;182.30;;;54.30;;
4744;SDS011;2386;42.138;24.746;2023-02-11T07:41:13;188.07;;;52.80;;
4744;SDS011;2386;42.138;24.746;2023-02-11T07:43:40;186.90;;;55.50;;
4744;SDS011;2386;42.138;24.746;2023-02-11T07:46:07;194.90;;;56.47;;
4744;SDS011;2386;42.138;24.746;2023-02-11T07:48:35;206.37;;;59.97;;
4744;SDS011;2386;42.138;24.746;2023-02-11T07:51:34;194.73;;;57.10;;
4744;SDS011;2386;42.138;24.746;2023-02-11T07:53:54;194.40;;;58.17;;
4744;SDS011;2386;42.138;24.746;2023-02-11T07:56:21;191.73;;;56.53;;
4744;SDS011;2386;42.138;24.746;2023-02-11T07:58:47;198.43;;;58.70;;
4744;SDS011;2386;42.138;24.746;2023-02-11T08:01:16;190.53;;;54.77;;
4744;SDS011;2386;42.138;24.746;2023-02-11T08:03:44;187.40;;;54.50;;
4744;SDS011;2386;42.138;24.746;2023-02-11T08:06:10;187.07;;;52.80;;
4744;SDS011;2386;42.138;24.746;2023-02-11T08:08:37;207.03;;;61.70;;
4744;SDS011;2386;42.138;24.746;2023-02-11T08:11:21;192.63;;;55.27;;
4744;SDS011;2386;42.138;24.746;2023-02-11T08:13:51;203.57;;;56.60;;
4744;SDS011;2386;42.138;24.746;2023-02-11T08:18:44;203.93;;;55.60;;
4744;SDS011;2386;42.138;24.746;2023-02-11T08:21:09;197.10;;;54.53;;
4744;SDS011;2386;42.138;24.746;2023-02-11T08:23:35;216.20;;;59.83;;
4744;SDS011;2386;42.138;24.746;2023-02-11T08:26:05;221.07;;;58.83;;
4744;SDS011;2386;42.138;24.746;2023-02-11T08:28:37;173.87;;;52.27;;
4744;SDS011;2386;42.138;24.746;2023-02-11T08:31:07;185.03;;;54.83;;
4744;SDS011;2386;42.138;24.746;2023-02-11T08:33:40;196.37;;;56.00;;
4744;SDS011;2386;42.138;24.746;2023-02-11T08:36:09;180.20;;;53.23;;
4744;SDS011;2386;42.138;24.746;2023-02-11T08:38:36;178.40;;;53.13;;
4744;SDS011;2386;42.138;24.746;2023-02-11T08:41:02;188.80;;;57.23;;
4744;SDS011;2386;42.138;24.746;2023-02-11T08:43:28;179.80;;;56.20;;
4744;SDS011;2386;42.138;24.746;2023-02-11T08:45:53;173.43;;;53.60;;
4744;SDS011;2386;42.138;24.746;2023-02-11T08:48:18;199.73;;;60.03;;
4744;SDS011;2386;42.138;24.746;2023-02-11T08:50:45;188.23;;;58.63;;
4744;SDS011;2386;42.138;24.746;2023-02-11T08:53:10;188.20;;;57.87;;
4744;SDS011;2386;42.138;24.746;2023-02-11T08:55:36;180.10;;;56.33;;
4744;SDS011;2386;42.138;24.746;2023-02-11T08:58:01;185.10;;;55.93;;
4744;SDS011;2386;42.138;24.746;2023-02-11T09:00:27;190.97;;;58.60;;
4744;SDS011;2386;42.138;24.746;2023-02-11T09:02:52;186.97;;;57.63;;
4744;SDS011;2386;42.138;24.746;2023-02-11T09:05:17;186.73;;;56.90;;
4744;SDS011;2386;42.138;24.746;2023-02-11T09:07:43;204.33;;;61.53;;
4744;SDS011;2386;42.138;24.746;2023-02-11T09:10:08;152.27;;;52.27;;
4744;SDS011;2386;42.138;24.746;2023-02-11T09:12:34;157.63;;;54.70;;
4744;SDS011;2386;42.138;24.746;2023-02-11T09:14:59;162.73;;;57.40;;
4744;SDS011;2386;42.138;24.746;2023-02-11T09:17:25;180.43;;;62.33;;
4744;SDS011;2386;42.138;24.746;2023-02-11T09:19:50;181.23;;;58.40;;
4744;SDS011;2386;42.138;24.746;2023-02-11T09:22:15;163.83;;;56.33;;
4744;SDS011;2386;42.138;24.746;2023-02-11T09:24:41;168.40;;;57.57;;
4744;SDS011;2386;42.138;24.746;2023-02-11T09:27:06;162.93;;;54.90;;
4744;SDS011;2386;42.138;24.746;2023-02-11T09:29:32;144.67;;;49.67;;
4744;SDS011;2386;42.138;24.746;2023-02-11T09:31:57;145.77;;;49.73;;
4744;SDS011;2386;42.138;24.746;2023-02-11T09:34:23;158.53;;;55.13;;
4744;SDS011;2386;42.138;24.746;2023-02-11T09:36:48;172.17;;;56.50;;
4744;SDS011;2386;42.138;24.746;2023-02-11T09:39:17;159.20;;;52.83;;
4744;SDS011;2386;42.138;24.746;2023-02-11T09:44:19;159.23;;;54.53;;
4744;SDS011;2386;42.138;24.746;2023-02-11T09:46:52;160.27;;;53.60;;
4744;SDS011;2386;42.138;24.746;2023-02-11T09:49:24;169.63;;;56.20;;
4744;SDS011;2386;42.138;24.746;2023-02-11T09:52:17;173.20;;;57.30;;
4744;SDS011;2386;42.138;24.746;2023-02-11T09:54:55;162.67;;;54.30;;
4744;SDS011;2386;42.138;24.746;2023-02-11T09:57:24;185.17;;;58.17;;
4744;SDS011;2386;42.138;24.746;2023-02-11T09:59:53;167.43;;;56.87;;
4744;SDS011;2386;42.138;24.746;2023-02-11T10:10:53;172.27;;;56.13;;
4744;SDS011;2386;42.138;24.746;2023-02-11T10:16:21;179.20;;;58.97;;
4744;SDS011;2386;42.138;24.746;2023-02-11T10:24:57;165.40;;;53.10;;
4744;SDS011;2386;42.138;24.746;2023-02-11T10:27:31;162.33;;;54.40;;
4744;SDS011;2386;42.138;24.746;2023-02-11T10:35:38;177.80;;;58.73;;
4744;SDS011;2386;42.138;24.746;2023-02-11T10:38:04;182.73;;;60.17;;
4744;SDS011;2386;42.138;24.746;2023-02-11T10:40:30;166.77;;;53.87;;
4744;SDS011;2386;42.138;24.746;2023-02-11T10:42:57;181.73;;;59.13;;
4744;SDS011;2386;42.138;24.746;2023-02-11T10:45:31;171.90;;;55.60;;
4744;SDS011;2386;42.138;24.746;2023-02-11T10:47:57;172.43;;;56.07;;
4744;SDS011;2386;42.138;24.746;2023-02-11T10:50:29;155.77;;;51.13;;
4744;SDS011;2386;42.138;24.746;2023-02-11T10:53:17;154.93;;;51.80;;
4744;SDS011;2386;42.138;24.746;2023-02-11T10:55:50;169.60;;;55.00;;
4744;SDS011;2386;42.138;24.746;2023-02-11T10:58:27;159.40;;;52.57;;
4744;SDS011;2386;42.138;24.746;2023-02-11T11:01:13;185.53;;;53.77;;
4744;SDS011;2386;42.138;24.746;2023-02-11T11:03:45;207.90;;;70.37;;
4744;SDS011;2386;42.138;24.746;2023-02-11T11:06:13;185.67;;;60.37;;
4744;SDS011;2386;42.138;24.746;2023-02-11T11:11:07;201.93;;;64.43;;
4744;SDS011;2386;42.138;24.746;2023-02-11T11:13:35;184.37;;;59.83;;
4744;SDS011;2386;42.138;24.746;2023-02-11T11:18:38;197.53;;;62.50;;
4744;SDS011;2386;42.138;24.746;2023-02-11T11:21:05;197.33;;;62.40;;
4744;SDS011;2386;42.138;24.746;2023-02-11T11:23:37;185.10;;;59.93;;
4744;SDS011;2386;42.138;24.746;2023-02-11T11:26:10;171.20;;;55.10;;
4744;SDS011;2386;42.138;24.746;2023-02-11T11:31:27;182.83;;;57.70;;
4744;SDS011;2386;42.138;24.746;2023-02-11T11:33:58;189.53;;;60.30;;
4744;SDS011;2386;42.138;24.746;2023-02-11T11:36:35;186.20;;;58.13;;
4744;SDS011;2386;42.138;24.746;2023-02-11T11:39:52;197.10;;;63.07;;
4744;SDS011;2386;42.138;24.746;2023-02-11T11:41:53;198.50;;;63.70;;
4744;SDS011;2386;42.138;24.746;2023-02-11T11:55:26;197.40;;;61.33;;
4744;SDS011;2386;42.138;24.746;2023-02-11T11:57:55;198.93;;;61.00;;
4744;SDS011;2386;42.138;24.746;2023-02-11T12:08:56;203.97;;;62.27;;
4744;SDS011;2386;42.138;24.746;2023-02-11T12:14:08;224.43;;;69.60;;
4744;SDS011;2386;42.138;24.746;2023-02-11T12:20:04;203.87;;;63.70;;
4744;SDS011;2386;42.138;24.746;2023-02-11T12:22:40;217.20;;;65.30;;
4744;SDS011;2386;42.138;24.746;2023-02-11T12:28:06;196.83;;;59.00;;
4744;SDS011;2386;42.138;24.746;2023-02-11T12:33:29;208.73;;;63.70;;
4744;SDS011;2386;42.138;24.746;2023-02-11T12:41:13;198.70;;;62.13;;
4744;SDS011;2386;42.138;24.746;2023-02-11T12:44:24;221.30;;;67.60;;
4744;SDS011;2386;42.138;24.746;2023-02-11T12:52:49;207.77;;;63.30;;
4744;SDS011;2386;42.138;24.746;2023-02-11T12:55:43;198.67;;;61.10;;
4744;SDS011;2386;42.138;24.746;2023-02-11T12:58:18;206.63;;;63.40;;
4744;SDS011;2386;42.138;24.746;2023-02-11T13:00:49;234.43;;;71.87;;
4744;SDS011;2386;42.138;24.746;2023-02-11T13:03:23;237.50;;;69.70;;
4744;SDS011;2386;42.138;24.746;2023-02-11T13:06:03;204.00;;;62.17;;
4744;SDS011;2386;42.138;24.746;2023-02-11T13:08:37;210.97;;;61.80;;
4744;SDS011;2386;42.138;24.746;2023-02-11T13:11:10;238.10;;;70.17;;
4744;SDS011;2386;42.138;24.746;2023-02-11T13:13:56;211.53;;;63.00;;
4744;SDS011;2386;42.138;24.746;2023-02-11T13:19:02;216.83;;;65.30;;
4744;SDS011;2386;42.138;24.746;2023-02-11T13:24:28;230.17;;;69.90;;
4744;SDS011;2386;42.138;24.746;2023-02-11T13:32:22;219.07;;;63.50;;
4744;SDS011;2386;42.138;24.746;2023-02-11T13:37:27;218.03;;;65.30;;
4744;SDS011;2386;42.138;24.746;2023-02-11T13:42:27;221.93;;;66.37;;
4744;SDS011;2386;42.138;24.746;2023-02-11T13:44:54;217.33;;;64.87;;
4744;SDS011;2386;42.138;24.746;2023-02-11T13:49:56;226.20;;;69.70;;
4744;SDS011;2386;42.138;24.746;2023-02-11T13:52:30;236.37;;;73.20;;
4744;SDS011;2386;42.138;24.746;2023-02-11T13:57:38;210.27;;;62.10;;
4744;SDS011;2386;42.138;24.746;2023-02-11T14:00:08;241.77;;;71.63;;
4744;SDS011;2386;42.138;24.746;2023-02-11T14:09:52;214.07;;;62.47;;
4744;SDS011;2386;42.138;24.746;2023-02-11T14:11:47;220.33;;;63.40;;
4744;SDS011;2386;42.138;24.746;2023-02-11T14:15:39;214.20;;;61.80;;
4744;SDS011;2386;42.138;24.746;2023-02-11T14:17:36;234.00;;;69.13;;
4744;SDS011;2386;42.138;24.746;2023-02-11T14:20:02;217.23;;;67.17;;
4744;SDS011;2386;42.138;24.746;2023-02-11T14:22:48;225.10;;;66.53;;
4744;SDS011;2386;42.138;24.746;2023-02-11T14:25:21;225.87;;;66.63;;
4744;SDS011;2386;42.138;24.746;2023-02-11T14:27:50;219.27;;;65.90;;
4744;SDS011;2386;42.138;24.746;2023-02-11T14:36:06;231.23;;;68.70;;
4744;SDS011;2386;42.138;24.746;2023-02-11T14:41:08;239.50;;;70.13;;
4744;SDS011;2386;42.138;24.746;2023-02-11T14:43:41;218.50;;;63.83;;
4744;SDS011;2386;42.138;24.746;2023-02-11T14:46:11;231.73;;;67.03;;
4744;SDS011;2386;42.138;24.746;2023-02-11T14:48:42;230.47;;;68.37;;
4744;SDS011;2386;42.138;24.746;2023-02-11T14:51:20;224.17;;;66.80;;
4744;SDS011;2386;42.138;24.746;2023-02-11T14:53:50;222.67;;;65.83;;
4744;SDS011;2386;42.138;24.746;2023-02-11T14:58:45;226.93;;;65.87;;
4744;SDS011;2386;42.138;24.746;2023-02-11T15:03:59;243.43;;;68.50;;
4744;SDS011;2386;42.138;24.746;2023-02-11T15:06:33;237.87;;;70.17;;
4744;SDS011;2386;42.138;24.746;2023-02-11T15:09:11;228.50;;;66.77;;
4744;SDS011;2386;42.138;24.746;2023-02-11T15:11:41;224.37;;;66.57;;
4744;SDS011;2386;42.138;24.746;2023-02-11T15:17:00;238.57;;;71.60;;
4744;SDS011;2386;42.138;24.746;2023-02-11T15:19:37;231.47;;;68.97;;
4744;SDS011;2386;42.138;24.746;2023-02-11T15:22:15;233.57;;;70.17;;
4744;SDS011;2386;42.138;24.746;2023-02-11T15:24:46;233.03;;;72.57;;
4744;SDS011;2386;42.138;24.746;2023-02-11T15:27:41;231.73;;;69.70;;
4744;SDS011;2386;42.138;24.746;2023-02-11T15:32:51;226.43;;;69.60;;
4744;SDS011;2386;42.138;24.746;2023-02-11T15:35:25;230.30;;;69.00;;
4744;SDS011;2386;42.138;24.746;2023-02-11T15:37:54;216.83;;;68.17;;
4744;SDS011;2386;42.138;24.746;2023-02-11T15:40:22;224.00;;;68.73;;
4744;SDS011;2386;42.138;24.746;2023-02-11T15:42:56;225.73;;;70.97;;
4744;SDS011;2386;42.138;24.746;2023-02-11T15:45:30;234.60;;;71.23;;
4744;SDS011;2386;42.138;24.746;2023-02-11T15:48:10;224.73;;;68.20;;
4744;SDS011;2386;42.138;24.746;2023-02-11T15:50:39;222.20;;;70.27;;
4744;SDS011;2386;42.138;24.746;2023-02-11T15:55:37;230.47;;;69.53;;
4744;SDS011;2386;42.138;24.746;2023-02-11T15:58:06;222.10;;;67.60;;
4744;SDS011;2386;42.138;24.746;2023-02-11T16:00:35;236.90;;;73.97;;
4744;SDS011;2386;42.138;24.746;2023-02-11T16:03:02;233.93;;;71.10;;
4744;SDS011;2386;42.138;24.746;2023-02-11T16:05:30;226.47;;;70.63;;
4744;SDS011;2386;42.138;24.746;2023-02-11T16:07:58;214.43;;;65.70;;
4744;SDS011;2386;42.138;24.746;2023-02-11T16:10:28;202.80;;;65.50;;
4744;SDS011;2386;42.138;24.746;2023-02-11T16:15:40;223.97;;;72.90;;
4744;SDS011;2386;42.138;24.746;2023-02-11T16:18:26;234.90;;;75.10;;
4744;SDS011;2386;42.138;24.746;2023-02-11T16:20:56;227.13;;;72.27;;
4744;SDS011;2386;42.138;24.746;2023-02-11T16:23:24;227.60;;;74.80;;
4744;SDS011;2386;42.138;24.746;2023-02-11T16:25:57;229.23;;;75.47;;
4744;SDS011;2386;42.138;24.746;2023-02-11T16:28:25;243.70;;;80.73;;
4744;SDS011;2386;42.138;24.746;2023-02-11T16:30:51;240.67;;;80.80;;
4744;SDS011;2386;42.138;24.746;2023-02-11T16:33:19;237.57;;;81.20;;
4744;SDS011;2386;42.138;24.746;2023-02-11T16:35:45;236.80;;;78.37;;
4744;SDS011;2386;42.138;24.746;2023-02-11T16:38:12;230.50;;;76.43;;
4744;SDS011;2386;42.138;24.746;2023-02-11T16:40:38;226.70;;;79.07;;
4744;SDS011;2386;42.138;24.746;2023-02-11T16:43:04;232.73;;;77.50;;
4744;SDS011;2386;42.138;24.746;2023-02-11T16:45:29;232.37;;;78.33;;
4744;SDS011;2386;42.138;24.746;2023-02-11T16:47:55;223.70;;;72.70;;
4744;SDS011;2386;42.138;24.746;2023-02-11T16:50:22;227.17;;;74.80;;
4744;SDS011;2386;42.138;24.746;2023-02-11T16:52:49;226.80;;;74.57;;
4744;SDS011;2386;42.138;24.746;2023-02-11T16:55:16;221.73;;;72.97;;
4744;SDS011;2386;42.138;24.746;2023-02-11T16:57:42;215.83;;;71.83;;
4744;SDS011;2386;42.138;24.746;2023-02-11T17:00:07;210.73;;;67.87;;
4744;SDS011;2386;42.138;24.746;2023-02-11T17:02:34;220.33;;;73.10;;
4744;SDS011;2386;42.138;24.746;2023-02-11T17:05:03;217.57;;;70.97;;
4744;SDS011;2386;42.138;24.746;2023-02-11T17:07:30;217.97;;;69.63;;
4744;SDS011;2386;42.138;24.746;2023-02-11T17:09:55;215.23;;;71.97;;
4744;SDS011;2386;42.138;24.746;2023-02-11T17:12:21;211.97;;;71.23;;
4744;SDS011;2386;42.138;24.746;2023-02-11T17:14:49;211.00;;;69.50;;
4744;SDS011;2386;42.138;24.746;2023-02-11T17:17:15;207.37;;;69.93;;
4744;SDS011;2386;42.138;24.746;2023-02-11T17:19:41;211.23;;;69.47;;
4744;SDS011;2386;42.138;24.746;2023-02-11T17:22:07;211.07;;;66.50;;